メルボルン空港の過去48時間の天気

メルボルン空港 (Melbourne Airport)

現在時刻: 9/26 07:25 AEST (9/25 21:25 UTC) 以下の時間は現地時間です。

過去48時間のMETAR気象情報
時間 風向 風速(m/s) 視程 気温(℃) 湿度(%) 気圧(hPa) 天気現象
26 07:00 6 10km以上 11 82 1015 弱い霧雨
26 06:30 7 10km以上 11 82 1015 弱い雨
26 06:00 北北東 6 10km以上 11 76 1015
26 05:30 6 10km以上 12 77 1015 弱い霧雨
26 05:00 5 10km以上 12 77 1015 弱い霧雨
26 04:30 7 10km以上 12 77 1015
26 04:00 7 10km以上 11 82 1015
26 03:30 6 10km以上 12 71 1015
26 03:00 5 10km以上 12 71 1015
26 02:30 6 10km以上 12 71 1015
26 01:30 6 10km以上 12 71 1016
26 01:00 6 10km以上 12 71 1016
26 00:30 6 10km以上 12 71 1016
25 23:30 5 10km以上 13 67 1016
25 22:30 6 10km以上 12 71 1017
25 22:00 7 10km以上 12 71 1016
25 21:30 7 10km以上 12 71 1016
25 21:00 5 10km以上 12 71 1016
25 20:30 6 10km以上 13 62 1016
25 20:00 5 10km以上 13 62 1016
25 19:30 5 10km以上 13 62 1016
25 19:00 5 10km以上 13 67 1015
25 18:30 4 10km以上 14 59 1015
25 18:00 北西 3 10km以上 16 48 1015
25 17:30 5 10km以上 17 48 1014
25 17:00 6 10km以上 18 45 1014
25 16:30 3 10km以上 18 45 1014
25 16:00 北北東 2 10km以上 18 45 1014
25 15:30 北北東 3 10km以上 18 45 1014
25 14:30 北北西 3 10km以上 17 48 1015
25 14:00 西 3 10km以上 17 45 1015
25 13:30 南東 2 10km以上 16 51 1015
25 13:00 3 10km以上 16 51 1016
25 12:30 北西 4 10km以上 16 48 1016
25 12:00 3 10km以上 15 48 1016
25 11:30 北西 4 10km以上 15 45 1016
25 11:00 西北西 1 10km以上 15 51 1016
25 10:30 北北西 3 10km以上 14 51 1016
25 10:00 3 10km以上 14 51 1016
25 09:30 北北東 4 10km以上 13 58 1016
25 09:00 北北東 5 10km以上 12 58 1016
25 08:30 5 10km以上 9 81 1016
25 08:00 6 10km以上 8 81 1016
25 07:30 5 10km以上 6 87 1016
25 07:00 5 10km以上 5 87 1016
25 06:30 6 10km以上 4 93 1016
25 06:00 6 10km以上 4 93 1016
25 05:30 5 10km以上 3 93 1016
25 05:00 5 10km以上 4 93 1016
25 04:30 5 10km以上 4 93 1015
25 04:00 4 10km以上 4 93 1015
25 03:30 4 10km以上 4 93 1015
25 03:00 4 10km以上 4 93 1015
25 02:30 2 10km以上 4 93 1016
25 01:30 3 10km以上 5 93 1016
25 01:00 3 10km以上 5 93 1016
25 00:30 北北西 3 10km以上 6 93 1016
25 00:00 北西 3 10km以上 7 87 1016
24 23:30 西北西 4 10km以上 7 87 1016
24 23:00 北西 4 10km以上 7 87 1016
24 22:30 北北西 3 10km以上 7 87 1016
24 22:00 3 10km以上 6 87 1016
24 21:30 西北西 3 10km以上 6 87 1017
24 21:00 西 3 10km以上 7 87 1016
24 20:30 静穏 0 10km以上 8 81 1016
24 20:00 静穏 0 10km以上 8 81 1016
24 19:30 南南西 2 10km以上 9 76 1016
24 18:30 4 10km以上 10 71 1015
24 18:00 5 10km以上 11 67 1015
24 17:30 6 10km以上 12 62 1015
24 17:00 6 10km以上 12 58 1015
24 16:30 6 10km以上 12 62 1015
24 16:00 6 10km以上 13 54 1015
24 15:30 6 10km以上 13 54 1015
24 15:00 南南西 7 10km以上 13 58 1015
24 14:30 6 10km以上 13 54 1015
24 14:00 南南西 6 10km以上 13 51 1015
24 13:30 南西 5 10km以上 13 54 1015
24 13:00 南西 8 10km以上 13 54 1015
24 12:30 南西 7 10km以上 13 58 1016
24 12:00 南南西 8 10km以上 13 51 1016
24 11:30 南南西 6 10km以上 13 58 1016
24 11:00 南西 6 10km以上 12 62 1016
24 10:30 南南西 6 10km以上 13 54 1016
24 10:00 南南西 7 10km以上 13 58 1016
24 09:30 南南西 6 10km以上 11 71 1017
24 08:30 南南西 6 10km以上 10 76 1017
24 08:00 南西 5 10km以上 9 81 1017
24 07:30 南西 3 10km以上 8 81 1016
YMML 252100Z 36012KT 9999 -DZ NSC 11/08 Q1015
YMML 252030Z 01014KT 9999 -RA NSC 11/08 Q1015
YMML 252000Z 02012KT CAVOK 11/07 Q1015
YMML 251930Z 01011KT 9999 -DZ NSC 12/08 Q1015
YMML 251900Z 01010KT 9999 -DZ NSC 12/08 Q1015
YMML 251830Z 01013KT CAVOK 12/08 Q1015
YMML 251800Z 01013KT CAVOK 11/08 Q1015
YMML 251730Z 36011KT CAVOK 12/07 Q1015
YMML 251700Z 01010KT CAVOK 12/07 Q1015
YMML 251630Z 01011KT 9999 SCT000 BKN090 12/07 Q1015
YMML 251530Z 01011KT CAVOK 12/07 Q1016
YMML 251500Z 01011KT CAVOK 12/07 Q1016
YMML 251430Z 01012KT CAVOK 12/07 Q1016
YMML 251330Z 36010KT CAVOK 13/07 Q1016
YMML 251230Z 36011KT CAVOK 12/07 Q1017
YMML 251200Z 01013KT CAVOK 12/07 Q1016
YMML 251130Z 36013KT CAVOK 12/07 Q1016
YMML 251100Z 01010KT CAVOK 12/07 Q1016
YMML 251030Z 01011KT CAVOK 13/06 Q1016
YMML 251000Z 36010KT CAVOK 13/06 Q1016
YMML 250930Z 01010KT CAVOK 13/06 Q1016
YMML 250900Z 01009KT CAVOK 13/07 Q1015
YMML 250830Z 01008KT 9999 FEW045 SCT260 14/06 Q1015
YMML 250800Z 32006KT 9999 FEW045 BKN260 16/05 Q1015
YMML 250730Z 01010KT 9999 FEW046 BKN260 17/06 Q1014
YMML 250700Z 01011KT 9999 FEW046 BKN260 18/06 Q1014
YMML 250630Z 36006KT 320V030 9999 FEW046 BKN260 18/06 Q1014
YMML 250600Z 02004KT 9999 FEW046 BKN260 18/06 Q1014
YMML 250530Z 02005KT 360V060 9999 FEW046 BKN260 18/06 Q1014
YMML 250430Z 34005KT 300V010 9999 FEW046 BKN260 17/06 Q1015
YMML 250400Z 28005KT 250V320 9999 FEW046 BKN260 17/05 Q1015
YMML 250330Z 14004KT 070V220 9999 SCT046 BKN260 16/06 Q1015
YMML 250300Z 17005KT 9999 FEW046 BKN270 16/06 Q1016
YMML 250230Z 32007KT 280V030 9999 FEW045 BKN270 16/05 Q1016
YMML 250200Z 35006KT 300V020 9999 FEW045 BKN280 15/04 Q1016
YMML 250130Z 31007KT 270V360 9999 FEW045 SCT280 15/03 Q1016
YMML 250100Z 29002KT 9999 FEW040 SCT280 15/05 Q1016
YMML 250030Z 33006KT 270V070 9999 FEW041 BKN280 14/04 Q1016
YMML 250000Z 35006KT 300V040 9999 FEW020 BKN280 14/04 Q1016
YMML 242330Z 02008KT 9999 FEW018 BKN280 13/05 Q1016
YMML 242300Z 02009KT CAVOK 12/04 Q1016
YMML 242230Z 01009KT CAVOK 09/06 Q1016
YMML 242200Z 01011KT CAVOK 08/05 Q1016
YMML 242130Z 01010KT CAVOK 06/04 Q1016
YMML 242100Z 01010KT 9999 FEW040 05/03 Q1016
YMML 242030Z 01011KT 9999 FEW040 04/03 Q1016
YMML 242000Z 01012KT 9999 FEW040 04/03 Q1016
YMML 241930Z 01009KT 9999 FEW040 03/02 Q1016
YMML 241900Z 36009KT CAVOK 04/03 Q1016
YMML 241830Z 36009KT CAVOK 04/03 Q1015
YMML 241800Z 36008KT CAVOK 04/03 Q1015
YMML 241730Z 01008KT CAVOK 04/03 Q1015
YMML 241700Z 01008KT 9999 FEW040 04/03 Q1015
YMML 241630Z 36004KT 9999 FEW040 04/03 Q1016
YMML 241530Z 01006KT 9999 FEW018 05/04 Q1016
YMML 241500Z 35005KT 9999 FEW018 05/04 Q1016
YMML 241430Z 33005KT 9999 FEW018 06/05 Q1016
YMML 241400Z 32005KT 9999 FEW020 07/05 Q1016
YMML 241330Z 30007KT 9999 FEW019 07/05 Q1016
YMML 241300Z 31007KT 9999 FEW019 SCT042 07/05 Q1016
YMML 241230Z 33005KT 9999 FEW019 07/05 Q1016
YMML 241200Z 36006KT 9999 FEW018 SCT047 06/04 Q1016
YMML 241130Z 30005KT 9999 FEW020 06/04 Q1017
YMML 241100Z 27005KT 9999 FEW020 07/05 Q1016
YMML 241030Z 00000KT 9999 FEW020 08/05 Q1016
YMML 241000Z 00000KT 9999 FEW025 08/05 Q1016
YMML 240930Z 20003KT 9999 FEW030 09/05 Q1016
YMML 240830Z 18007KT 9999 FEW035 10/05 Q1015
YMML 240800Z 17009KT 9999 FEW035 11/05 Q1015
YMML 240730Z 18011KT 9999 FEW035 SCT054 12/05 Q1015
YMML 240700Z 19012KT 9999 FEW035 SCT054 12/04 Q1015
YMML 240630Z 17012KT 9999 FEW043 SCT053 12/05 Q1015
YMML 240600Z 19012KT 9999 FEW043 SCT053 13/04 Q1015
YMML 240530Z 19012KT 9999 FEW043 SCT051 13/04 Q1015
YMML 240500Z 20013KT 9999 FEW043 BKN051 13/05 Q1015
YMML 240430Z 19012KT 170V240 9999 FEW042 BKN053 13/04 Q1015
YMML 240400Z 21012KT 9999 FEW041 BKN050 13/03 Q1015
YMML 240330Z 22010KT 180V240 9999 FEW041 BKN050 13/04 Q1015
YMML 240300Z 23015KT 9999 FEW041 BKN050 13/04 Q1015
YMML 240230Z 22014KT 9999 FEW045 BKN051 13/05 Q1016
YMML 240200Z 21016KT 9999 SCT043 13/03 Q1016
YMML 240130Z 21011KT 9999 SCT041 13/05 Q1016
YMML 240100Z 22011KT 9999 SCT040 12/05 Q1016
YMML 240030Z 20012KT 9999 SCT035 13/04 Q1016
YMML 240000Z 20013KT 9999 SCT032 13/05 Q1016
YMML 232330Z 21012KT 9999 SCT030 11/06 Q1017
YMML 232230Z 20011KT 9999 FEW020 10/06 Q1017
YMML 232200Z 23009KT 9999 FEW021 09/06 Q1017
YMML 232130Z 23005KT 9999 FEW021 08/05 Q1016